Time;durP1;ratioP1;P1;durP2;ratioP2;P2;SDS_P1;SDS_P2;PMS_P1;PMS_P2;Temp;Humidity;BMP_temperature;BMP_pressure;BME280_temperature;BME280_humidity;BME280_pressure;Samples;Min_cycle;Max_cycle;Signal;HPM_P1;HPM_P2
2021/07/12 00:01:12;;;;;;;1.35;1.35;;;22.50;99.90;;;;;;5086273;28;20649;-67
2021/07/12 00:03:39;;;;;;;1.40;1.40;;;22.50;99.90;;;;;;5057452;28;20288;-66
2021/07/12 00:06:07;;;;;;;1.50;1.50;;;22.40;99.90;;;;;;5061749;28;20228;-66
2021/07/12 00:08:35;;;;;;;1.30;1.30;;;22.40;99.90;;;;;;5063077;28;20194;-66
2021/07/12 00:11:02;;;;;;;1.30;1.20;;;22.40;99.90;;;;;;5057508;28;20237;-67
2021/07/12 00:13:29;;;;;;;1.23;1.23;;;22.40;99.90;;;;;;5060589;28;20311;-66
2021/07/12 00:15:56;;;;;;;1.38;1.25;;;22.40;99.90;;;;;;5056346;28;20284;-66
2021/07/12 00:18:23;;;;;;;1.85;1.30;;;22.40;99.90;;;;;;5053873;28;20218;-66
2021/07/12 00:20:50;;;;;;;1.38;1.27;;;22.40;99.90;;;;;;5063887;28;20205;-67
2021/07/12 00:23:19;;;;;;;1.85;1.20;;;22.40;99.90;;;;;;5067520;28;20368;-67
2021/07/12 00:25:47;;;;;;;1.20;1.20;;;22.40;99.90;;;;;;5066756;28;20280;-67
2021/07/12 00:28:14;;;;;;;0.90;0.90;;;22.40;99.90;;;;;;5052583;28;20603;-66
2021/07/12 00:30:41;;;;;;;1.05;1.05;;;22.40;99.90;;;;;;5059375;28;20237;-67
2021/07/12 00:33:08;;;;;;;1.20;1.20;;;22.40;99.90;;;;;;5068286;28;20208;-68
2021/07/12 00:35:35;;;;;;;1.17;1.17;;;22.40;99.90;;;;;;5065739;28;20716;-68
2021/07/12 00:38:02;;;;;;;1.00;1.00;;;22.30;99.90;;;;;;5068794;28;20695;-66
2021/07/12 00:40:31;;;;;;;2.15;1.10;;;22.40;99.90;;;;;;5068392;28;20652;-66
2021/07/12 00:42:59;;;;;;;2.13;1.10;;;22.40;99.90;;;;;;5068718;28;20276;-66
2021/07/12 00:45:31;;;;;;;1.85;1.30;;;22.40;99.90;;;;;;5053884;28;20653;-67
2021/07/12 00:48:00;;;;;;;1.38;1.30;;;22.40;99.90;;;;;;5068020;28;20250;-66
2021/07/12 00:50:29;;;;;;;1.30;1.30;;;22.40;99.90;;;;;;5056256;28;20201;-66
2021/07/12 00:52:57;;;;;;;1.02;1.02;;;22.40;99.90;;;;;;5062465;28;20197;-66
2021/07/12 00:55:31;;;;;;;1.20;1.20;;;22.40;99.90;;;;;;5054027;28;20208;-66
2021/07/12 00:58:00;;;;;;;1.20;1.20;;;22.50;99.90;;;;;;5085679;28;20265;-68
2021/07/12 01:00:28;;;;;;;1.33;1.20;;;22.50;99.90;;;;;;5058736;28;20193;-66
2021/07/12 01:02:56;;;;;;;1.30;1.30;;;22.50;99.90;;;;;;5058079;28;20279;-67
2021/07/12 01:05:29;;;;;;;1.15;1.15;;;22.50;99.90;;;;;;5051144;28;20546;-67
2021/07/12 01:07:57;;;;;;;1.20;1.20;;;22.50;99.90;;;;;;5055839;28;20224;-67
2021/07/12 01:10:26;;;;;;;1.40;1.30;;;22.50;99.90;;;;;;5052984;28;20225;-67
2021/07/12 01:13:08;;;;;;;1.38;1.30;;;22.50;99.90;;;;;;5083217;28;20552;-67
2021/07/12 01:15:44;;;;;;;1.30;1.30;;;22.50;99.90;;;;;;5083089;28;20205;-67
2021/07/12 01:18:29;;;;;;;1.52;1.42;;;22.50;99.90;;;;;;5049779;28;20681;-67
2021/07/12 01:21:29;;;;;;;1.42;1.33;;;22.60;99.90;;;;;;5064537;28;20626;-67
2021/07/12 01:24:43;;;;;;;1.50;1.30;;;22.40;99.90;;;;;;5068060;28;20211;-67
2021/07/12 01:27:43;;;;;;;1.23;1.23;;;22.40;99.90;;;;;;5068143;28;20197;-67
2021/07/12 01:30:17;;;;;;;1.30;1.30;;;22.40;99.90;;;;;;5093597;28;20296;-67
2021/07/12 01:32:56;;;;;;;1.42;1.33;;;22.40;99.90;;;;;;5099677;28;20209;-67
2021/07/12 01:35:33;;;;;;;6.25;1.70;;;22.40;99.90;;;;;;5065621;28;20204;-67
2021/07/12 01:38:21;;;;;;;1.40;1.40;;;22.40;99.90;;;;;;5100868;28;20217;-67
2021/07/12 01:41:07;;;;;;;1.58;1.48;;;22.30;99.90;;;;;;5070598;28;20722;-67
2021/07/12 01:43:43;;;;;;;1.60;1.50;;;22.30;99.90;;;;;;5103429;28;20671;-68
2021/07/12 01:46:16;;;;;;;1.35;1.35;;;22.30;99.90;;;;;;5103704;28;20211;-67
2021/07/12 01:48:54;;;;;;;2.47;1.55;;;22.30;99.90;;;;;;5102405;28;20201;-67
2021/07/12 01:51:30;;;;;;;1.60;1.52;;;22.30;99.90;;;;;;5069122;28;20339;-67
2021/07/12 01:54:04;;;;;;;1.55;1.45;;;22.30;99.90;;;;;;5067156;28;20603;-67
2021/07/12 01:56:41;;;;;;;2.13;2.03;;;22.20;99.90;;;;;;5092549;28;20214;-67
2021/07/12 01:59:15;;;;;;;1.90;1.80;;;22.30;99.90;;;;;;5067329;28;20232;-70
2021/07/12 02:01:46;;;;;;;2.45;1.70;;;22.20;99.90;;;;;;5088035;28;20661;-70
2021/07/12 02:04:20;;;;;;;1.70;1.60;;;22.20;99.90;;;;;;5068751;28;20204;-70
2021/07/12 02:06:51;;;;;;;1.40;1.40;;;22.30;99.90;;;;;;5071314;28;20208;-70
2021/07/12 02:09:21;;;;;;;1.50;1.50;;;22.20;99.90;;;;;;5082777;28;20217;-70
2021/07/12 02:11:57;;;;;;;1.40;1.40;;;22.20;99.90;;;;;;5066754;28;20236;-70
2021/07/12 02:14:26;;;;;;;3.10;1.23;;;22.20;99.90;;;;;;5071118;28;20600;-70
2021/07/12 02:16:55;;;;;;;1.40;1.40;;;22.20;99.90;;;;;;5069930;28;20215;-70
2021/07/12 02:19:31;;;;;;;1.60;1.50;;;22.20;99.90;;;;;;5068487;28;20670;-70
2021/07/12 02:22:01;;;;;;;2.45;1.23;;;22.20;99.90;;;;;;5071226;28;20200;-70
2021/07/12 02:24:52;;;;;;;1.45;1.35;;;22.20;99.90;;;;;;5092629;28;20292;-70
2021/07/12 02:27:23;;;;;;;1.42;1.33;;;22.20;99.90;;;;;;5102453;28;20278;-70
2021/07/12 02:29:52;;;;;;;1.63;1.52;;;22.20;99.90;;;;;;5067793;28;20710;-70
2021/07/12 02:32:23;;;;;;;2.45;1.30;;;22.20;99.90;;;;;;5070133;28;20207;-70
2021/07/12 02:34:53;;;;;;;1.27;1.25;;;22.20;99.90;;;;;;5102277;28;20669;-70
2021/07/12 02:37:21;;;;;;;1.88;1.40;;;22.30;99.90;;;;;;5070167;28;20266;-70
2021/07/12 02:39:50;;;;;;;1.10;1.10;;;22.20;99.90;;;;;;5102530;28;20324;-70
2021/07/12 02:42:19;;;;;;;1.10;1.10;;;22.30;99.90;;;;;;5068287;28;20213;-70
2021/07/12 02:44:49;;;;;;;1.50;1.40;;;22.40;99.90;;;;;;5068729;28;20236;-70
2021/07/12 02:47:18;;;;;;;1.15;1.15;;;22.40;99.90;;;;;;5069468;28;20197;-70
2021/07/12 02:49:47;;;;;;;1.40;1.30;;;22.40;99.90;;;;;;5100750;28;20208;-70
2021/07/12 02:52:22;;;;;;;1.27;1.27;;;22.30;99.90;;;;;;5093757;28;20684;-70
2021/07/12 02:54:56;;;;;;;2.15;1.45;;;22.40;99.90;;;;;;5082265;28;20249;-70
2021/07/12 02:57:23;;;;;;;2.47;1.30;;;22.30;99.90;;;;;;5068055;28;20670;-71
2021/07/12 02:59:51;;;;;;;1.50;1.40;;;22.40;99.90;;;;;;5066073;28;20217;-70
2021/07/12 03:02:18;;;;;;;1.30;1.20;;;22.40;99.90;;;;;;5065279;28;20229;-70
2021/07/12 03:04:46;;;;;;;1.95;1.20;;;22.40;99.90;;;;;;5081245;28;20206;-69
2021/07/12 03:07:29;;;;;;;1.20;1.20;;;22.40;99.90;;;;;;5068050;28;20221;-70
2021/07/12 03:10:02;;;;;;;2.47;1.30;;;22.40;99.90;;;;;;5060263;28;20208;-69
2021/07/12 03:12:38;;;;;;;1.50;1.40;;;22.40;99.90;;;;;;5064159;28;20201;-69
2021/07/12 03:15:09;;;;;;;1.27;1.27;;;22.40;99.90;;;;;;5069275;28;20228;-69
2021/07/12 03:17:40;;;;;;;1.50;1.40;;;22.50;99.90;;;;;;5063720;28;20541;-69
2021/07/12 03:20:11;;;;;;;1.80;1.40;;;22.50;99.90;;;;;;5058918;28;20566;-69
2021/07/12 03:22:41;;;;;;;1.60;1.50;;;22.60;99.90;;;;;;5068267;28;20201;-69
2021/07/12 03:25:12;;;;;;;1.60;1.50;;;22.60;99.90;;;;;;5069337;28;20273;-69
2021/07/12 03:27:42;;;;;;;1.42;1.33;;;22.60;99.90;;;;;;5068179;28;20209;-70
2021/07/12 03:30:11;;;;;;;1.15;1.15;;;22.60;99.90;;;;;;5069025;28;20211;-70
2021/07/12 03:32:42;;;;;;;1.10;1.10;;;22.60;99.90;;;;;;5049918;28;20612;-70
2021/07/12 03:35:12;;;;;;;1.20;1.20;;;22.60;99.90;;;;;;5061725;28;20189;-70
2021/07/12 03:37:41;;;;;;;1.00;1.00;;;22.70;99.90;;;;;;5068313;28;20296;-70
2021/07/12 03:40:09;;;;;;;1.48;1.38;;;22.80;99.90;;;;;;5067018;28;20307;-71
2021/07/12 03:42:38;;;;;;;1.55;1.48;;;22.80;99.90;;;;;;5068442;28;20299;-70
2021/07/12 03:45:09;;;;;;;1.73;1.63;;;22.80;99.90;;;;;;5067740;28;21625;-70
2021/07/12 03:47:38;;;;;;;3.42;1.55;;;22.80;99.90;;;;;;5066831;28;20232;-69
2021/07/12 03:50:11;;;;;;;1.27;1.17;;;22.90;99.90;;;;;;5055697;28;20276;-69
2021/07/12 03:52:44;;;;;;;1.45;1.33;;;22.90;99.90;;;;;;5061472;28;20363;-70
2021/07/12 03:55:13;;;;;;;1.33;1.23;;;22.90;99.90;;;;;;5082609;28;20760;-69
2021/07/12 03:57:40;;;;;;;1.50;1.40;;;22.90;99.90;;;;;;5066955;28;20212;-70
2021/07/12 04:00:09;;;;;;;1.38;1.33;;;23.00;99.90;;;;;;5066878;28;20221;-70
2021/07/12 04:02:44;;;;;;;1.65;1.42;;;23.00;99.90;;;;;;5068320;28;20199;-70
2021/07/12 04:05:12;;;;;;;1.70;1.10;;;23.00;99.90;;;;;;5067640;28;20248;-69
2021/07/12 04:07:41;;;;;;;1.48;1.30;;;23.00;99.90;;;;;;5064443;28;20201;-69
2021/07/12 04:10:10;;;;;;;1.58;1.48;;;23.10;99.90;;;;;;5056340;28;20319;-70
2021/07/12 04:12:38;;;;;;;1.45;1.20;;;23.10;99.90;;;;;;5064299;28;20564;-69
2021/07/12 04:15:06;;;;;;;1.17;1.10;;;23.10;99.90;;;;;;5067358;28;20236;-69
2021/07/12 04:17:33;;;;;;;5.38;1.55;;;23.20;99.90;;;;;;5065726;28;20201;-70
2021/07/12 04:20:00;;;;;;;2.03;1.20;;;23.10;99.90;;;;;;5065583;28;20235;-69
2021/07/12 04:22:28;;;;;;;1.67;1.42;;;23.20;99.90;;;;;;5067292;28;20243;-69
2021/07/12 04:24:56;;;;;;;1.80;1.38;;;23.20;99.90;;;;;;5060996;28;20299;-69
2021/07/12 04:27:23;;;;;;;2.35;1.75;;;23.20;99.90;;;;;;5049341;28;20281;-69
2021/07/12 04:29:50;;;;;;;1.23;1.20;;;23.20;99.90;;;;;;5062595;28;20189;-70
2021/07/12 04:32:17;;;;;;;1.13;1.13;;;23.20;99.90;;;;;;5093219;28;20225;-69
2021/07/12 04:34:45;;;;;;;1.63;1.20;;;23.20;99.90;;;;;;5093960;28;20557;-69
2021/07/12 04:37:12;;;;;;;1.33;1.30;;;23.20;99.90;;;;;;5068956;28;20280;-69
2021/07/12 04:39:39;;;;;;;1.30;1.30;;;23.20;99.90;;;;;;5067632;28;20231;-68
2021/07/12 04:42:07;;;;;;;1.20;1.20;;;23.20;99.90;;;;;;5055938;28;20232;-69
2021/07/12 04:44:38;;;;;;;1.33;1.33;;;23.20;99.90;;;;;;5067844;28;20296;-69
2021/07/12 04:47:06;;;;;;;1.10;1.10;;;23.20;99.90;;;;;;5081232;28;20202;-69
2021/07/12 04:49:33;;;;;;;2.90;1.20;;;23.30;99.90;;;;;;5059061;28;20268;-69
2021/07/12 04:52:01;;;;;;;1.50;1.30;;;23.30;99.90;;;;;;5101385;28;20738;-69
2021/07/12 04:54:28;;;;;;;1.40;1.30;;;24.40;99.90;;;;;;5067866;28;20622;-70
2021/07/12 04:56:58;;;;;;;1.52;1.42;;;23.40;99.90;;;;;;5083556;28;20224;-70
2021/07/12 04:59:27;;;;;;;1.20;1.10;;;23.40;99.90;;;;;;5057277;28;20481;-69
2021/07/12 05:01:55;;;;;;;1.58;1.48;;;23.50;99.90;;;;;;5065761;28;20747;-68
2021/07/12 05:04:22;;;;;;;1.33;1.23;;;23.60;99.90;;;;;;5067206;28;20712;-68
2021/07/12 05:06:49;;;;;;;2.20;2.00;;;23.70;99.90;;;;;;5100414;28;20273;-68
2021/07/12 05:09:16;;;;;;;1.25;1.25;;;23.70;99.90;;;;;;5099514;28;20230;-68
2021/07/12 05:11:43;;;;;;;1.52;1.48;;;23.80;99.90;;;;;;5096114;28;20264;-67
2021/07/12 05:14:10;;;;;;;1.92;1.75;;;23.80;99.90;;;;;;5102491;28;20236;-68
2021/07/12 05:16:40;;;;;;;5.07;2.00;;;23.80;99.90;;;;;;5089127;28;20531;-68
2021/07/12 05:19:08;;;;;;;1.80;1.70;;;23.80;99.90;;;;;;5062732;28;20233;-70
2021/07/12 05:21:35;;;;;;;1.60;1.50;;;23.90;99.90;;;;;;5071999;28;20198;-69
2021/07/12 05:24:02;;;;;;;2.20;1.83;;;23.80;99.90;;;;;;5071876;28;20229;-68
2021/07/12 05:26:29;;;;;;;6.78;2.38;;;23.90;99.90;;;;;;5071322;28;20201;-69
2021/07/12 05:28:59;;;;;;;4.20;1.75;;;23.90;99.90;;;;;;5104166;28;20301;-69
2021/07/12 05:31:26;;;;;;;2.80;1.80;;;24.00;99.90;;;;;;5071191;28;20193;-69
2021/07/12 05:33:54;;;;;;;4.75;1.67;;;24.00;99.90;;;;;;5103130;28;20577;-68
2021/07/12 05:36:21;;;;;;;1.95;1.63;;;24.00;99.90;;;;;;5072072;28;20193;-68
2021/07/12 05:38:48;;;;;;;3.80;1.90;;;24.10;99.90;;;;;;5071185;28;20236;-68
2021/07/12 05:41:15;;;;;;;1.88;1.70;;;24.10;99.90;;;;;;5069272;28;20251;-69
2021/07/12 05:43:42;;;;;;;2.60;1.77;;;24.20;99.90;;;;;;5104263;28;20208;-68
2021/07/12 05:46:09;;;;;;;1.60;1.50;;;24.30;99.90;;;;;;5071815;28;20197;-68
2021/07/12 05:48:36;;;;;;;2.33;1.80;;;24.40;99.90;;;;;;5069649;28;20201;-69
2021/07/12 05:51:05;;;;;;;1.77;1.60;;;24.50;99.90;;;;;;5068256;28;20263;-68
2021/07/12 05:53:32;;;;;;;2.08;1.88;;;24.70;99.90;;;;;;5060823;28;20225;-68
2021/07/12 05:55:59;;;;;;;1.88;1.60;;;24.80;99.90;;;;;;5071555;28;20225;-69
2021/07/12 05:58:26;;;;;;;1.70;1.60;;;25.00;99.90;;;;;;5099341;28;20212;-69
2021/07/12 06:00:55;;;;;;;2.50;1.73;;;25.00;99.90;;;;;;5103441;28;20580;-69
2021/07/12 06:03:22;;;;;;;4.38;1.60;;;25.00;99.90;;;;;;5068211;28;20295;-68
2021/07/12 06:05:49;;;;;;;2.80;1.80;;;25.00;99.90;;;;;;5051829;28;20251;-69
2021/07/12 06:08:18;;;;;;;3.15;1.88;;;25.00;99.90;;;;;;5048594;28;20316;-69
2021/07/12 06:10:45;;;;;;;1.85;1.70;;;25.00;99.90;;;;;;5056549;28;20234;-69
2021/07/12 06:13:12;;;;;;;3.17;1.58;;;25.00;99.90;;;;;;5060575;28;20217;-70
2021/07/12 06:15:39;;;;;;;1.92;1.77;;;25.00;99.90;;;;;;5092151;28;20204;-69
2021/07/12 06:18:12;;;;;;;2.05;1.85;;;25.00;99.90;;;;;;5062463;28;21248;-69
2021/07/12 06:20:39;;;;;;;1.70;1.52;;;25.00;99.90;;;;;;5064091;28;20308;-68
2021/07/12 06:23:06;;;;;;;1.40;1.30;;;25.10;99.90;;;;;;5063185;28;20292;-68
2021/07/12 06:25:35;;;;;;;2.15;1.52;;;25.20;99.90;;;;;;5057425;28;20196;-68
2021/07/12 06:28:02;;;;;;;1.50;1.40;;;25.30;99.90;;;;;;5062837;28;20549;-68
2021/07/12 06:30:29;;;;;;;1.75;1.65;;;25.40;99.90;;;;;;5057246;28;20220;-68
2021/07/12 06:32:56;;;;;;;1.40;1.40;;;25.40;99.90;;;;;;5056047;28;20542;-68
2021/07/12 06:35:23;;;;;;;5.25;1.67;;;25.40;99.90;;;;;;5097809;27;20209;-68
2021/07/12 06:37:50;;;;;;;2.10;1.90;;;25.30;99.90;;;;;;5061075;28;20695;-67
2021/07/12 06:40:17;;;;;;;2.88;1.85;;;25.30;99.90;;;;;;5065287;28;20371;-67
2021/07/12 06:42:46;;;;;;;2.25;1.42;;;25.30;99.90;;;;;;5060419;28;20564;-67
2021/07/12 06:45:15;;;;;;;1.75;1.65;;;25.30;99.90;;;;;;5091829;28;20206;-67
2021/07/12 06:47:42;;;;;;;2.15;2.00;;;25.30;99.90;;;;;;5061052;28;20209;-68
2021/07/12 06:50:10;;;;;;;1.85;1.75;;;25.30;99.90;;;;;;5062229;28;20197;-68
2021/07/12 06:52:37;;;;;;;2.00;1.90;;;25.30;99.90;;;;;;5065575;28;20294;-68
2021/07/12 06:55:05;;;;;;;1.75;1.65;;;25.30;99.90;;;;;;5064527;28;20280;-68
2021/07/12 06:57:32;;;;;;;1.60;1.50;;;25.40;99.90;;;;;;5063815;28;20296;-68
2021/07/12 07:00:00;;;;;;;4.10;2.25;;;25.60;99.90;;;;;;5061181;28;20201;-69
2021/07/12 07:02:28;;;;;;;3.10;1.98;;;26.20;99.90;;;;;;5065074;28;20201;-69
2021/07/12 07:05:05;;;;;;;4.78;1.60;;;27.30;99.90;;;;;;5065008;28;20205;-69
2021/07/12 07:07:32;;;;;;;2.05;1.50;;;29.00;99.90;;;;;;5061868;28;20225;-68
2021/07/12 07:09:59;;;;;;;2.00;1.67;;;30.20;99.90;;;;;;5062008;28;20682;-68
2021/07/12 07:12:26;;;;;;;1.50;1.50;;;31.30;99.90;;;;;;5059067;28;20208;-69
2021/07/12 07:14:53;;;;;;;4.78;1.77;;;31.90;99.90;;;;;;5065003;28;20193;-69
2021/07/12 07:17:22;;;;;;;2.33;1.92;;;32.80;99.90;;;;;;5059002;28;20194;-69
2021/07/12 07:19:49;;;;;;;3.17;1.60;;;34.20;99.90;;;;;;5062519;28;20219;-69
2021/07/12 07:22:16;;;;;;;1.67;1.58;;;34.90;97.10;;;;;;5062086;28;20292;-69
2021/07/12 07:24:49;;;;;;;3.58;1.85;;;35.50;94.40;;;;;;5063092;28;21028;-69
2021/07/12 07:27:17;;;;;;;2.47;1.70;;;35.90;92.10;;;;;;5060860;28;20284;-67
2021/07/12 07:29:45;;;;;;;1.83;1.73;;;35.70;91.10;;;;;;5062334;28;20573;-68
2021/07/12 07:32:12;;;;;;;1.90;1.80;;;35.10;90.90;;;;;;5056657;28;20264;-68
2021/07/12 07:34:41;;;;;;;2.47;1.60;;;34.60;91.10;;;;;;5058352;28;20706;-70
2021/07/12 07:37:09;;;;;;;1.80;1.70;;;34.00;91.70;;;;;;5063144;28;20685;-69
2021/07/12 07:39:38;;;;;;;3.22;1.63;;;33.60;92.20;;;;;;5053850;28;20225;-68
2021/07/12 07:42:05;;;;;;;1.80;1.70;;;33.20;92.60;;;;;;5060486;28;20197;-68
2021/07/12 07:44:33;;;;;;;1.80;1.70;;;32.80;92.80;;;;;;5058448;28;20292;-69
2021/07/12 07:47:00;;;;;;;1.77;1.67;;;32.30;93.30;;;;;;5064056;28;20232;-69
2021/07/12 07:49:28;;;;;;;1.90;1.80;;;31.80;93.90;;;;;;5058808;28;20288;-68
2021/07/12 07:51:57;;;;;;;3.13;1.77;;;31.20;94.70;;;;;;5056934;28;20198;-68
2021/07/12 07:54:24;;;;;;;4.35;1.85;;;30.60;95.80;;;;;;5094619;28;20283;-69
2021/07/12 07:56:51;;;;;;;3.05;2.45;;;30.10;97.00;;;;;;5058834;28;20663;-68
2021/07/12 07:59:18;;;;;;;1.92;1.83;;;29.70;98.00;;;;;;5060538;28;20201;-68
2021/07/12 08:01:45;;;;;;;2.88;2.10;;;29.40;99.10;;;;;;5058872;28;20308;-68
2021/07/12 08:04:12;;;;;;;4.50;2.05;;;29.00;99.90;;;;;;5054440;28;20198;-68
2021/07/12 08:06:39;;;;;;;2.78;1.88;;;28.70;99.90;;;;;;5056565;28;20193;-68
2021/07/12 08:09:08;;;;;;;5.60;1.80;;;28.40;99.90;;;;;;5063924;28;20280;-68
2021/07/12 08:11:35;;;;;;;6.15;2.08;;;28.20;99.90;;;;;;5056401;28;20341;-68
2021/07/12 08:14:02;;;;;;;2.35;1.80;;;28.00;99.90;;;;;;5062067;28;20292;-68
2021/07/12 08:16:31;;;;;;;3.80;2.30;;;27.90;99.90;;;;;;5058335;28;20205;-70
2021/07/12 08:18:58;;;;;;;2.90;2.15;;;27.70;99.90;;;;;;5062989;28;20193;-69
2021/07/12 08:21:25;;;;;;;2.33;2.20;;;27.60;99.90;;;;;;5057143;28;20240;-71
2021/07/12 08:23:52;;;;;;;2.28;2.08;;;27.80;99.90;;;;;;5062554;28;20294;-70
2021/07/12 08:26:20;;;;;;;2.83;1.85;;;28.10;99.90;;;;;;5091806;27;20309;-71
2021/07/12 08:28:48;;;;;;;1.90;1.80;;;28.30;99.90;;;;;;5058880;28;20389;-71
2021/07/12 08:31:16;;;;;;;1.70;1.60;;;28.30;99.90;;;;;;5059468;28;20614;-69
2021/07/12 08:33:43;;;;;;;1.80;1.70;;;28.40;99.90;;;;;;5059537;28;20194;-71
2021/07/12 08:36:13;;;;;;;1.95;1.85;;;28.40;99.90;;;;;;5059004;28;20201;-70
2021/07/12 08:38:41;;;;;;;3.97;1.80;;;28.60;99.90;;;;;;5062125;28;20460;-71
2021/07/12 08:41:08;;;;;;;6.10;2.33;;;28.60;99.90;;;;;;5094104;28;20708;-70
2021/07/12 08:43:36;;;;;;;4.18;2.30;;;28.60;99.90;;;;;;5059875;28;20204;-69
2021/07/12 08:46:03;;;;;;;1.95;1.85;;;28.50;99.90;;;;;;5064765;28;20228;-71
2021/07/12 08:48:30;;;;;;;2.00;1.90;;;28.40;99.90;;;;;;5056317;28;20221;-71
2021/07/12 08:50:58;;;;;;;2.55;2.13;;;28.20;99.90;;;;;;5057073;28;20352;-70
2021/07/12 08:53:25;;;;;;;3.85;2.53;;;28.00;99.90;;;;;;5060316;28;20543;-70
2021/07/12 08:55:52;;;;;;;2.65;2.45;;;27.90;99.90;;;;;;5063763;28;20201;-69
2021/07/12 08:58:23;;;;;;;4.22;2.28;;;28.00;99.90;;;;;;5053553;28;20220;-71
2021/07/12 09:00:54;;;;;;;2.70;2.30;;;28.10;99.90;;;;;;5057425;28;20228;-71
2021/07/12 09:03:27;;;;;;;10.38;5.32;;;28.20;99.90;;;;;;5061528;28;20281;-72
2021/07/12 09:06:00;;;;;;;5.13;2.75;;;28.30;99.90;;;;;;5059011;28;20575;-73
2021/07/12 09:08:46;;;;;;;4.95;2.10;;;28.60;99.90;;;;;;5058299;28;20285;-71
2021/07/12 09:11:19;;;;;;;4.03;2.90;;;28.80;99.90;;;;;;5061070;28;20252;-71
2021/07/12 09:13:52;;;;;;;3.95;2.50;;;29.20;99.90;;;;;;5085455;28;20213;-73
2021/07/12 09:16:36;;;;;;;3.45;3.03;;;29.50;99.90;;;;;;5062473;28;20201;-71
2021/07/12 09:19:20;;;;;;;3.47;2.50;;;29.90;99.90;;;;;;5057653;28;20208;-72
2021/07/12 09:21:50;;;;;;;4.10;2.42;;;30.20;99.90;;;;;;5059495;28;20229;-71
2021/07/12 09:24:21;;;;;;;2.70;2.33;;;30.50;99.90;;;;;;5062672;28;20235;-72
2021/07/12 09:26:50;;;;;;;4.78;2.22;;;30.60;99.90;;;;;;5061270;28;20225;-72
2021/07/12 09:29:20;;;;;;;3.88;2.22;;;30.70;99.90;;;;;;5057660;28;20212;-72
2021/07/12 09:31:49;;;;;;;1.95;1.85;;;30.70;99.90;;;;;;5057545;28;20224;-74
2021/07/12 09:34:18;;;;;;;2.30;2.20;;;30.70;99.90;;;;;;5059659;28;20193;-70
2021/07/12 09:36:45;;;;;;;2.42;2.10;;;30.70;99.90;;;;;;5059218;28;20227;-71
2021/07/12 09:39:21;;;;;;;2.40;2.15;;;30.80;99.90;;;;;;5058540;28;20284;-68
2021/07/12 09:41:48;;;;;;;3.47;2.00;;;30.70;99.90;;;;;;5058284;28;20478;-70
2021/07/12 09:44:17;;;;;;;2.95;2.30;;;30.60;99.90;;;;;;5089154;28;20205;-73
2021/07/12 09:46:45;;;;;;;4.85;2.58;;;30.40;99.90;;;;;;5055180;28;20621;-72
2021/07/12 09:49:15;;;;;;;2.10;2.00;;;30.50;99.90;;;;;;5049851;28;20204;-72
2021/07/12 09:51:42;;;;;;;4.57;2.25;;;30.70;99.90;;;;;;5055558;28;20199;-72
2021/07/12 09:54:20;;;;;;;2.28;2.03;;;30.90;99.90;;;;;;5088480;28;20761;-72
2021/07/12 09:56:49;;;;;;;3.20;2.30;;;31.10;99.90;;;;;;5054582;28;20556;-72
2021/07/12 09:59:17;;;;;;;4.30;2.53;;;31.20;99.90;;;;;;5059263;28;20201;-73
2021/07/12 10:01:49;;;;;;;7.97;2.78;;;31.20;99.90;;;;;;5062276;28;20221;-71
2021/07/12 10:04:18;;;;;;;8.25;2.75;;;31.30;99.90;;;;;;5061187;28;20288;-72
2021/07/12 10:06:47;;;;;;;9.57;2.50;;;31.50;99.90;;;;;;5057752;28;21086;-71
2021/07/12 10:09:15;;;;;;;3.85;2.33;;;31.50;99.60;;;;;;5061700;28;20199;-72
2021/07/12 10:11:44;;;;;;;3.70;2.03;;;31.60;98.70;;;;;;5056469;28;20253;-72
2021/07/12 10:14:12;;;;;;;3.15;2.45;;;31.70;98.60;;;;;;5077924;28;20201;-72
2021/07/12 10:16:39;;;;;;;3.33;2.20;;;31.90;97.70;;;;;;5060680;28;20197;-72
2021/07/12 10:19:08;;;;;;;5.57;2.30;;;31.90;98.00;;;;;;5059380;28;20197;-72
2021/07/12 10:21:39;;;;;;;4.03;2.10;;;32.10;98.30;;;;;;5059863;28;20339;-72
2021/07/12 10:24:06;;;;;;;3.30;2.63;;;32.30;97.80;;;;;;5060869;28;20492;-72
2021/07/12 10:26:57;;;;;;;4.78;2.63;;;32.50;97.30;;;;;;5057586;28;20250;-72
2021/07/12 10:29:30;;;;;;;3.17;2.30;;;32.60;96.80;;;;;;5061450;28;20193;-72
2021/07/12 10:32:04;;;;;;;2.53;2.28;;;32.80;96.60;;;;;;5061350;28;20684;-73
2021/07/12 10:34:36;;;;;;;3.33;2.30;;;32.90;96.30;;;;;;5058163;28;20346;-72
2021/07/12 10:37:09;;;;;;;2.55;2.20;;;33.00;94.80;;;;;;5063148;28;20193;-73
2021/07/12 10:40:17;;;;;;;3.83;2.30;;;33.00;94.20;;;;;;5053858;28;20209;-72
2021/07/12 10:42:55;;;;;;;4.10;3.00;;;32.90;93.50;;;;;;5057403;28;20217;-72
2021/07/12 10:45:39;;;;;;;3.42;2.28;;;32.80;93.70;;;;;;5083004;28;20779;-73
2021/07/12 10:48:12;;;;;;;10.40;2.47;;;32.70;94.10;;;;;;5058163;28;20680;-72
2021/07/12 10:51:01;;;;;;;7.20;2.30;;;32.70;94.30;;;;;;5056847;28;20193;-73
2021/07/12 10:53:38;;;;;;;2.83;2.60;;;32.80;94.20;;;;;;5058146;28;20197;-72
2021/07/12 10:56:09;;;;;;;7.88;3.08;;;32.70;93.90;;;;;;5056794;28;20299;-72
2021/07/12 10:58:47;;;;;;;7.25;2.83;;;32.70;93.90;;;;;;5049363;28;20213;-74
2021/07/12 11:01:37;;;;;;;5.82;3.13;;;32.60;93.90;;;;;;5058405;28;20796;-72
2021/07/12 11:04:33;;;;;;;9.45;3.10;;;32.60;93.80;;;;;;5052616;28;20198;-73
2021/07/12 11:07:01;;;;;;;3.65;3.05;;;32.50;93.90;;;;;;5053511;28;20201;-72
2021/07/12 11:09:50;;;;;;;3.15;2.83;;;32.40;93.90;;;;;;5059209;28;20212;-72
2021/07/12 11:12:32;;;;;;;5.10;2.90;;;32.30;94.30;;;;;;5083316;28;20366;-73
2021/07/12 11:15:14;;;;;;;4.40;2.75;;;32.10;94.60;;;;;;5054896;28;20446;-72
2021/07/12 11:17:55;;;;;;;9.85;3.10;;;32.10;94.70;;;;;;5057098;28;20640;-72
2021/07/12 11:20:51;;;;;;;2.60;2.42;;;32.00;95.00;;;;;;5091838;28;20304;-69
2021/07/12 11:23:52;;;;;;;4.50;3.42;;;31.70;95.20;;;;;;5090869;28;20227;-70
2021/07/12 11:27:03;;;;;;;6.22;2.42;;;31.40;95.60;;;;;;5060576;28;20637;-70
2021/07/12 11:29:38;;;;;;;5.65;2.40;;;31.20;96.10;;;;;;5058674;28;20221;-71
2021/07/12 11:32:23;;;;;;;2.40;2.30;;;30.90;96.60;;;;;;5054782;28;20295;-70
2021/07/12 11:34:56;;;;;;;5.95;3.15;;;30.70;97.00;;;;;;5059495;28;20319;-71
2021/07/12 11:37:26;;;;;;;3.17;2.70;;;30.60;97.20;;;;;;5057554;28;20669;-70
2021/07/12 11:39:55;;;;;;;2.97;2.53;;;30.40;97.60;;;;;;5055437;28;20233;-70
2021/07/12 11:42:29;;;;;;;3.78;2.15;;;30.30;97.90;;;;;;5059961;28;20687;-71
2021/07/12 11:45:02;;;;;;;3.03;2.35;;;30.20;98.20;;;;;;5050428;28;20212;-71
2021/07/12 11:47:32;;;;;;;4.13;2.70;;;30.30;98.50;;;;;;5052652;28;20248;-71
2021/07/12 11:50:03;;;;;;;4.03;2.58;;;30.30;98.30;;;;;;5060503;28;20200;-70
2021/07/12 11:52:31;;;;;;;3.38;2.30;;;30.60;98.20;;;;;;5051476;28;21021;-70
2021/07/12 11:55:08;;;;;;;3.72;2.30;;;30.90;97.40;;;;;;5059376;28;20703;-70
2021/07/12 11:57:38;;;;;;;3.80;2.38;;;31.40;96.90;;;;;;5057389;28;20262;-70
2021/07/12 12:00:08;;;;;;;4.95;2.17;;;31.80;95.90;;;;;;5057054;28;20205;-70
2021/07/12 12:02:35;;;;;;;4.20;2.08;;;32.10;95.60;;;;;;5057462;28;20262;-70
2021/07/12 12:05:06;;;;;;;5.13;2.40;;;32.20;95.00;;;;;;5058350;28;20205;-70
2021/07/12 12:07:37;;;;;;;7.10;2.55;;;32.20;94.80;;;;;;5056565;28;20205;-70
2021/07/12 12:10:11;;;;;;;6.47;2.33;;;32.20;94.90;;;;;;5055530;28;20512;-70
2021/07/12 12:12:43;;;;;;;2.95;2.22;;;32.30;94.80;;;;;;5083986;28;20283;-69
2021/07/12 12:15:13;;;;;;;3.17;2.50;;;32.20;95.00;;;;;;5055280;28;20209;-70
2021/07/12 12:17:44;;;;;;;5.18;2.58;;;32.10;94.60;;;;;;5050212;28;20625;-71
2021/07/12 12:20:23;;;;;;;2.50;2.30;;;32.00;94.50;;;;;;5060775;28;20201;-72
2021/07/12 12:23:10;;;;;;;3.70;2.67;;;31.80;94.80;;;;;;5056413;28;20775;-73
2021/07/12 12:25:46;;;;;;;4.10;2.67;;;31.50;95.10;;;;;;5059807;28;20552;-74
2021/07/12 12:28:31;;;;;;;3.58;2.50;;;31.40;95.60;;;;;;5054316;28;20204;-73
2021/07/12 12:31:01;;;;;;;2.90;2.17;;;31.30;95.80;;;;;;5054085;28;20201;-73
2021/07/12 12:33:30;;;;;;;8.10;2.47;;;31.20;96.10;;;;;;5056376;28;20201;-73
2021/07/12 12:35:59;;;;;;;2.88;2.42;;;31.10;96.20;;;;;;5052811;28;20195;-73
2021/07/12 12:38:27;;;;;;;3.60;2.65;;;30.90;96.30;;;;;;5053082;28;20805;-74
2021/07/12 12:41:00;;;;;;;4.00;2.88;;;30.60;96.60;;;;;;5056969;28;20275;-73
2021/07/12 12:43:28;;;;;;;8.25;2.72;;;30.40;96.90;;;;;;5091770;27;20197;-73
2021/07/12 12:45:59;;;;;;;8.40;3.15;;;30.20;97.20;;;;;;5058778;28;20189;-74
2021/07/12 12:48:43;;;;;;;2.47;2.30;;;30.10;97.40;;;;;;5058685;28;20193;-73
2021/07/12 12:51:31;;;;;;;5.50;2.78;;;29.80;97.80;;;;;;5090481;28;20220;-73
2021/07/12 12:54:11;;;;;;;2.75;2.55;;;29.60;98.20;;;;;;5059664;28;20194;-73
2021/07/12 12:56:46;;;;;;;3.65;2.60;;;29.40;98.80;;;;;;5057766;28;20193;-73
2021/07/12 12:59:16;;;;;;;2.30;2.10;;;29.20;99.20;;;;;;5061008;28;20247;-73
2021/07/12 13:01:44;;;;;;;3.85;2.70;;;29.10;99.70;;;;;;5057028;28;20746;-73
2021/07/12 13:04:17;;;;;;;3.83;3.00;;;29.00;99.90;;;;;;5056319;28;20622;-73
2021/07/12 13:06:56;;;;;;;2.85;2.65;;;28.90;99.90;;;;;;5061936;28;20226;-71
2021/07/12 13:09:27;;;;;;;3.00;2.45;;;28.70;99.90;;;;;;5058071;28;20202;-72